Time;durP1;ratioP1;P1;durP2;ratioP2;P2;SDS_P1;SDS_P2;PMS_P1;PMS_P2;Temp;Humidity;BMP_temperature;BMP_pressure;BME280_temperature;BME280_humidity;BME280_pressure;Samples;Min_cycle;Max_cycle;Signal;HPM_P1;HPM_P2
2022/03/05 00:02:24;;;;;;;18.00;9.23;;;2.20;97.10;;;;;;5006251;28;20034;-71
2022/03/05 00:04:51;;;;;;;18.83;8.93;;;2.20;97.10;;;;;;5016267;28;20025;-70
2022/03/05 00:07:19;;;;;;;15.93;8.40;;;2.30;97.10;;;;;;5005444;28;20067;-70
2022/03/05 00:09:45;;;;;;;18.25;8.70;;;2.30;97.00;;;;;;4996710;28;20095;-73
2022/03/05 00:12:12;;;;;;;20.80;9.55;;;2.30;96.90;;;;;;4989428;28;20033;-73
2022/03/05 00:14:37;;;;;;;16.88;9.32;;;2.30;96.90;;;;;;5006988;28;20541;-70
2022/03/05 00:17:04;;;;;;;16.00;8.97;;;2.40;96.90;;;;;;5001987;28;20026;-70
2022/03/05 00:19:29;;;;;;;17.70;9.35;;;2.40;96.90;;;;;;4985699;28;20052;-70
2022/03/05 00:21:57;;;;;;;18.03;8.33;;;2.40;96.90;;;;;;5005126;28;20467;-72
2022/03/05 00:24:24;;;;;;;21.73;9.43;;;2.40;96.90;;;;;;4989560;28;20446;-70
2022/03/05 00:26:49;;;;;;;17.52;8.82;;;2.40;96.90;;;;;;5014913;28;20699;-70
2022/03/05 00:29:15;;;;;;;19.10;9.77;;;2.40;96.90;;;;;;4986877;28;20038;-71
2022/03/05 00:31:40;;;;;;;22.20;9.57;;;2.40;96.80;;;;;;5007887;28;20037;-70
2022/03/05 00:34:08;;;;;;;17.37;8.63;;;2.40;96.70;;;;;;4999217;28;20029;-70
2022/03/05 00:36:33;;;;;;;18.42;8.90;;;2.40;96.70;;;;;;5009656;28;20375;-70
2022/03/05 00:38:59;;;;;;;19.73;9.73;;;2.50;96.60;;;;;;5001161;28;20021;-73
2022/03/05 00:41:25;;;;;;;19.40;9.90;;;2.50;96.60;;;;;;4986105;28;20030;-70
2022/03/05 00:43:51;;;;;;;17.52;9.20;;;2.50;96.50;;;;;;5005811;28;20098;-70
2022/03/05 00:46:16;;;;;;;18.63;9.60;;;2.50;96.50;;;;;;5002242;28;20473;-70
2022/03/05 00:48:43;;;;;;;22.90;10.23;;;2.50;96.50;;;;;;5012387;28;20029;-72
2022/03/05 00:51:09;;;;;;;21.85;10.68;;;2.50;96.40;;;;;;5004543;28;20036;-70
2022/03/05 00:53:35;;;;;;;21.05;11.35;;;2.50;96.40;;;;;;5006642;28;20100;-70
2022/03/05 00:56:01;;;;;;;20.50;9.80;;;2.50;96.40;;;;;;5001549;28;20614;-70
2022/03/05 00:58:26;;;;;;;24.10;10.23;;;2.50;96.40;;;;;;4987138;28;20022;-71
2022/03/05 01:00:52;;;;;;;19.43;10.07;;;2.60;96.30;;;;;;4992152;28;20669;-73
2022/03/05 01:03:18;;;;;;;21.55;9.52;;;2.50;96.30;;;;;;5003053;28;20483;-70
2022/03/05 01:05:44;;;;;;;22.97;10.90;;;2.60;96.30;;;;;;5009513;28;20057;-73
2022/03/05 01:08:10;;;;;;;25.20;11.17;;;2.60;96.20;;;;;;5001269;28;20108;-69
2022/03/05 01:10:36;;;;;;;24.00;10.50;;;2.60;96.20;;;;;;5011751;28;20025;-71
2022/03/05 01:13:03;;;;;;;18.47;8.97;;;2.60;96.20;;;;;;5004368;28;20033;-70
2022/03/05 01:15:28;;;;;;;19.30;10.00;;;2.60;96.20;;;;;;4986512;28;20930;-70
2022/03/05 01:17:55;;;;;;;21.57;10.77;;;2.60;96.20;;;;;;5007950;28;20128;-69
2022/03/05 01:20:21;;;;;;;21.27;9.80;;;2.60;96.20;;;;;;5007008;28;20049;-72
2022/03/05 01:22:46;;;;;;;21.87;10.23;;;2.60;96.20;;;;;;4995884;28;20037;-70
2022/03/05 01:25:12;;;;;;;24.20;10.40;;;2.60;96.20;;;;;;4990851;28;20029;-73
2022/03/05 01:27:38;;;;;;;20.33;10.10;;;2.60;96.20;;;;;;5008077;28;20081;-70
2022/03/05 01:30:04;;;;;;;21.57;9.27;;;2.60;96.20;;;;;;5007515;28;20360;-71
2022/03/05 01:32:32;;;;;;;20.50;9.45;;;2.60;96.30;;;;;;5010595;28;20043;-70
2022/03/05 01:34:58;;;;;;;21.23;10.43;;;2.60;96.30;;;;;;4991821;28;20163;-71
2022/03/05 01:37:23;;;;;;;21.03;10.47;;;2.60;96.40;;;;;;5001438;28;20117;-71
2022/03/05 01:39:50;;;;;;;23.37;10.77;;;2.60;96.30;;;;;;5011147;28;20442;-73
2022/03/05 01:42:20;;;;;;;22.52;10.63;;;2.60;96.30;;;;;;5004240;28;20033;-71
2022/03/05 01:44:46;;;;;;;23.38;10.73;;;2.60;96.30;;;;;;5007294;28;20022;-71
2022/03/05 01:47:13;;;;;;;21.90;9.83;;;2.60;96.20;;;;;;5003570;28;20096;-72
2022/03/05 01:49:38;;;;;;;19.75;10.07;;;2.70;96.20;;;;;;5004672;28;20029;-71
2022/03/05 01:52:04;;;;;;;20.87;9.47;;;2.70;96.10;;;;;;5001210;28;20026;-71
2022/03/05 01:54:30;;;;;;;22.43;11.63;;;2.70;96.00;;;;;;5006762;28;20029;-71
2022/03/05 01:56:58;;;;;;;21.43;9.87;;;2.70;96.00;;;;;;5011401;28;20048;-71
2022/03/05 01:59:25;;;;;;;20.05;10.27;;;2.70;96.00;;;;;;5000995;28;20596;-70
2022/03/05 02:01:51;;;;;;;23.45;11.48;;;2.70;96.50;;;;;;5004491;28;20482;-71
2022/03/05 02:04:17;;;;;;;25.13;10.27;;;2.70;96.70;;;;;;5003699;28;20032;-74
2022/03/05 02:06:42;;;;;;;22.35;11.27;;;2.70;97.10;;;;;;5007448;28;20028;-72
2022/03/05 02:09:08;;;;;;;22.20;11.40;;;2.70;97.40;;;;;;4981201;28;20034;-71
2022/03/05 02:11:34;;;;;;;22.97;11.60;;;2.70;97.60;;;;;;5004842;28;20018;-75
2022/03/05 02:14:00;;;;;;;22.23;11.37;;;2.70;97.70;;;;;;5000791;28;20045;-78
2022/03/05 02:16:26;;;;;;;21.17;10.30;;;2.70;98.10;;;;;;5000389;28;20026;-73
2022/03/05 02:18:57;;;;;;;25.10;11.85;;;2.70;98.30;;;;;;5004380;28;20065;-74
2022/03/05 02:21:27;;;;;;;23.95;12.15;;;2.70;98.80;;;;;;4999902;28;20306;-71
2022/03/05 02:23:54;;;;;;;22.55;11.70;;;2.70;98.90;;;;;;5005680;28;20068;-71
2022/03/05 02:26:21;;;;;;;26.33;11.57;;;2.70;99.10;;;;;;5002937;28;20121;-75
2022/03/05 02:28:47;;;;;;;24.95;11.35;;;2.60;99.70;;;;;;4986060;28;20048;-71
2022/03/05 02:31:13;;;;;;;24.88;11.27;;;2.70;99.80;;;;;;5003849;28;20033;-73
2022/03/05 02:33:40;;;;;;;24.17;11.23;;;2.60;99.90;;;;;;4989524;28;20014;-72
2022/03/05 02:36:06;;;;;;;;;;;2.60;99.90;;;;;;4996923;28;20024;-75
2022/03/05 02:38:32;;;;;;;23.85;12.18;;;2.60;99.50;;;;;;5000484;28;19913;-73
2022/03/05 02:40:57;;;;;;;21.87;10.93;;;2.60;99.30;;;;;;5008922;28;20022;-71
2022/03/05 02:43:25;;;;;;;22.10;10.47;;;2.60;99.30;;;;;;4997189;28;20036;-71
2022/03/05 02:45:51;;;;;;;23.48;11.63;;;2.60;99.00;;;;;;4994732;28;20487;-70
2022/03/05 02:48:17;;;;;;;21.52;11.25;;;2.60;98.90;;;;;;5001122;28;20451;-71
2022/03/05 02:50:44;;;;;;;22.77;11.15;;;2.60;99.10;;;;;;4999915;28;20022;-70
2022/03/05 02:53:10;;;;;;;;;;;2.60;99.00;;;;;;5002848;28;20044;-70
2022/03/05 02:55:36;;;;;;;23.05;10.68;;;2.60;99.20;;;;;;5001241;28;20047;-71
2022/03/05 02:58:03;;;;;;;22.30;10.57;;;2.60;99.20;;;;;;4982261;28;20026;-70
2022/03/05 03:00:29;;;;;;;27.38;12.07;;;2.60;99.30;;;;;;5005853;28;20029;-71
2022/03/05 03:02:55;;;;;;;27.63;12.10;;;2.60;99.40;;;;;;5007551;28;20022;-71
2022/03/05 03:05:21;;;;;;;23.20;12.30;;;2.60;99.40;;;;;;4999693;28;20045;-70
2022/03/05 03:07:48;;;;;;;23.85;10.88;;;2.50;99.60;;;;;;5005127;28;20026;-71
2022/03/05 03:10:15;;;;;;;28.52;11.35;;;2.50;99.60;;;;;;4983367;28;20033;-71
2022/03/05 03:12:41;;;;;;;;;;;2.50;99.70;;;;;;5005097;28;20014;-70
2022/03/05 03:15:11;;;;;;;27.88;11.13;;;2.50;99.70;;;;;;4982173;28;19909;-70
2022/03/05 03:17:47;;;;;;;27.10;12.35;;;2.50;99.60;;;;;;5006250;28;20021;-70
2022/03/05 03:20:18;;;;;;;21.75;11.10;;;2.50;99.60;;;;;;5007821;28;20044;-70
2022/03/05 03:22:44;;;;;;;24.00;10.85;;;2.50;99.60;;;;;;5017050;28;20497;-71
2022/03/05 03:25:12;;;;;;;22.40;11.63;;;2.50;99.60;;;;;;5008555;28;20038;-70
2022/03/05 03:27:39;;;;;;;23.77;10.98;;;2.50;99.50;;;;;;5009014;28;20029;-70
2022/03/05 03:30:05;;;;;;;23.27;11.65;;;2.50;99.50;;;;;;5012283;28;20422;-70
2022/03/05 03:32:31;;;;;;;;;;;2.50;99.50;;;;;;4991655;28;20120;-73
2022/03/05 03:34:58;;;;;;;23.75;10.52;;;2.50;99.40;;;;;;5009525;28;19996;-71
2022/03/05 03:37:28;;;;;;;24.75;11.60;;;2.50;99.40;;;;;;5005790;28;20550;-71
2022/03/05 03:39:56;;;;;;;23.35;11.75;;;2.50;99.40;;;;;;5009555;28;20116;-71
2022/03/05 03:42:23;;;;;;;23.55;10.70;;;2.50;99.30;;;;;;5012129;28;20036;-71
2022/03/05 03:44:48;;;;;;;22.20;10.93;;;2.50;99.20;;;;;;5012737;28;20438;-71
2022/03/05 03:47:14;;;;;;;24.03;11.50;;;2.40;99.20;;;;;;5003177;28;20029;-71
2022/03/05 03:49:40;;;;;;;21.80;10.80;;;2.40;99.20;;;;;;5009708;28;20030;-70
2022/03/05 03:52:06;;;;;;;23.03;11.37;;;2.40;99.30;;;;;;5006135;28;20025;-70
2022/03/05 03:54:31;;;;;;;25.20;12.50;;;2.40;99.20;;;;;;5002418;28;20858;-71
2022/03/05 03:56:57;;;;;;;23.20;11.50;;;2.40;99.20;;;;;;5010676;28;20090;-70
2022/03/05 03:59:23;;;;;;;23.80;12.60;;;2.40;99.30;;;;;;5005594;28;20104;-71
2022/03/05 04:01:49;;;;;;;22.47;10.80;;;2.40;99.30;;;;;;5007136;28;20017;-71
2022/03/05 04:04:14;;;;;;;25.17;12.13;;;2.30;99.30;;;;;;5000474;28;20029;-69
2022/03/05 04:09:25;;;;;;;24.75;11.30;;;2.30;99.30;;;;;;5012939;28;20052;-70
2022/03/05 04:11:51;;;;;;;23.30;11.47;;;2.30;99.50;;;;;;5005313;28;20016;-70
2022/03/05 04:14:17;;;;;;;26.27;13.47;;;2.20;99.30;;;;;;4987492;28;20029;-72
2022/03/05 04:16:43;;;;;;;24.27;11.40;;;2.20;99.40;;;;;;5015065;28;20757;-70
2022/03/05 04:19:09;;;;;;;22.67;11.48;;;2.20;99.50;;;;;;5006814;28;20034;-70
2022/03/05 04:21:35;;;;;;;26.70;12.13;;;2.10;99.50;;;;;;5011628;28;20018;-71
2022/03/05 04:24:01;;;;;;;27.80;12.27;;;2.10;99.50;;;;;;5009919;28;20041;-70
2022/03/05 04:26:27;;;;;;;26.50;12.20;;;2.10;99.50;;;;;;5008756;28;20773;-71
2022/03/05 04:28:53;;;;;;;;;;;2.00;99.50;;;;;;5008370;28;20041;-70
2022/03/05 04:31:19;;;;;;;24.05;11.50;;;2.00;99.50;;;;;;5002490;28;19986;-70
2022/03/05 04:33:44;;;;;;;23.37;11.97;;;1.90;99.50;;;;;;5008005;28;20053;-69
2022/03/05 04:36:10;;;;;;;23.43;11.27;;;1.90;99.70;;;;;;5003466;28;20136;-72
2022/03/05 04:38:36;;;;;;;22.30;11.83;;;1.80;99.70;;;;;;4989439;28;20028;-70
2022/03/05 04:41:01;;;;;;;21.83;11.23;;;1.80;99.80;;;;;;5004457;28;20018;-70
2022/03/05 04:43:27;;;;;;;24.53;12.27;;;1.80;99.90;;;;;;4999895;28;20049;-69
2022/03/05 04:45:53;;;;;;;24.13;12.23;;;1.80;99.90;;;;;;4985270;28;20018;-70
2022/03/05 04:48:18;;;;;;;22.13;9.97;;;1.70;99.90;;;;;;5004023;28;20033;-74
2022/03/05 04:50:46;;;;;;;28.93;12.47;;;1.70;99.90;;;;;;5002239;28;20783;-75
2022/03/05 04:53:13;;;;;;;26.55;12.35;;;1.70;99.90;;;;;;5003701;28;20694;-71
2022/03/05 04:55:39;;;;;;;23.10;11.32;;;1.70;99.90;;;;;;5008948;28;20781;-72
2022/03/05 04:58:04;;;;;;;28.07;12.83;;;1.70;99.90;;;;;;4989898;28;20029;-69
2022/03/05 05:00:30;;;;;;;25.17;12.53;;;1.70;99.90;;;;;;5001693;28;20032;-71
2022/03/05 05:02:56;;;;;;;22.73;11.97;;;1.80;99.90;;;;;;5010423;28;20029;-70
2022/03/05 05:05:22;;;;;;;24.53;12.27;;;1.70;99.90;;;;;;4981617;28;20032;-73
2022/03/05 05:07:48;;;;;;;24.45;11.45;;;1.70;99.90;;;;;;5013616;28;20120;-70
2022/03/05 05:10:14;;;;;;;22.17;11.80;;;1.70;99.90;;;;;;5006982;28;20137;-70
2022/03/05 05:12:40;;;;;;;26.17;12.40;;;1.70;99.90;;;;;;4990159;28;20032;-69
2022/03/05 05:15:06;;;;;;;23.03;12.17;;;1.70;99.90;;;;;;5012080;28;20025;-70
2022/03/05 05:17:38;;;;;;;23.48;11.85;;;1.70;99.90;;;;;;4998112;28;20025;-73
2022/03/05 05:20:05;;;;;;;22.60;11.35;;;1.70;99.90;;;;;;5005978;28;20014;-70
2022/03/05 05:22:32;;;;;;;;;;;1.70;99.90;;;;;;5008580;28;20042;-70
2022/03/05 05:24:59;;;;;;;24.73;12.40;;;1.70;99.90;;;;;;5002362;28;20178;-71
2022/03/05 05:27:25;;;;;;;25.63;11.25;;;1.70;99.90;;;;;;4977204;28;20766;-70
2022/03/05 05:29:51;;;;;;;27.02;12.95;;;1.70;99.90;;;;;;5009617;28;20030;-70
2022/03/05 05:32:17;;;;;;;26.33;12.63;;;1.80;99.90;;;;;;5002815;28;20033;-70
2022/03/05 05:34:43;;;;;;;24.10;12.43;;;1.80;99.90;;;;;;5004402;28;20075;-71
2022/03/05 05:37:08;;;;;;;26.73;14.13;;;1.80;99.90;;;;;;5007455;28;20021;-70
2022/03/05 05:39:35;;;;;;;25.20;12.03;;;1.80;99.90;;;;;;5007200;28;20037;-70
2022/03/05 05:42:00;;;;;;;25.13;13.17;;;1.80;99.90;;;;;;5003858;28;20045;-71
2022/03/05 05:44:26;;;;;;;24.17;11.50;;;1.80;99.90;;;;;;4985529;28;21013;-70
2022/03/05 05:46:54;;;;;;;22.13;11.37;;;1.80;99.90;;;;;;5004154;28;20108;-71
2022/03/05 05:49:20;;;;;;;26.60;12.10;;;1.90;99.90;;;;;;4981583;28;20029;-70
2022/03/05 05:51:46;;;;;;;27.10;11.47;;;1.90;99.90;;;;;;4999680;28;20028;-70
2022/03/05 05:54:11;;;;;;;24.27;12.17;;;1.90;99.90;;;;;;4998885;28;20087;-69
2022/03/05 05:56:38;;;;;;;24.27;11.83;;;2.00;99.90;;;;;;5004231;28;20435;-71
2022/03/05 05:59:04;;;;;;;21.50;11.40;;;2.00;99.90;;;;;;5001735;28;20105;-70
2022/03/05 06:01:30;;;;;;;24.98;12.55;;;2.00;99.80;;;;;;4995628;28;20030;-70
2022/03/05 06:03:56;;;;;;;24.13;12.30;;;2.00;99.70;;;;;;5009424;28;20095;-70
2022/03/05 06:06:22;;;;;;;22.40;11.20;;;2.00;99.80;;;;;;5003842;28;20048;-70
2022/03/05 06:08:48;;;;;;;26.80;11.90;;;2.10;99.60;;;;;;5005388;28;20101;-70
2022/03/05 06:11:15;;;;;;;24.80;12.15;;;2.10;99.60;;;;;;5003687;28;20033;-70
2022/03/05 06:13:42;;;;;;;26.67;12.73;;;2.10;99.50;;;;;;5012672;28;20040;-71
2022/03/05 06:16:09;;;;;;;23.42;11.63;;;2.20;99.40;;;;;;5003545;28;20014;-71
2022/03/05 06:18:34;;;;;;;;;;;2.20;99.30;;;;;;5003159;28;20117;-71
2022/03/05 06:21:00;;;;;;;23.70;12.20;;;2.30;99.20;;;;;;5002929;28;20151;-70
2022/03/05 06:23:29;;;;;;;21.87;11.60;;;2.30;99.10;;;;;;4998821;28;20034;-70
2022/03/05 06:25:55;;;;;;;22.10;11.38;;;2.40;99.00;;;;;;4998735;28;20065;-70
2022/03/05 06:28:20;;;;;;;27.60;11.73;;;2.40;99.00;;;;;;5001921;28;20102;-70
2022/03/05 06:30:46;;;;;;;24.43;11.30;;;2.50;98.90;;;;;;4984344;28;20685;-70
2022/03/05 06:33:12;;;;;;;22.27;10.93;;;2.50;98.50;;;;;;4997994;28;20510;-70
2022/03/05 06:35:37;;;;;;;20.80;10.80;;;2.60;98.30;;;;;;5002426;28;20021;-70
2022/03/05 06:38:04;;;;;;;23.67;11.33;;;2.60;98.30;;;;;;5007164;28;20391;-71
2022/03/05 06:40:30;;;;;;;22.25;10.80;;;2.70;98.10;;;;;;5003004;28;20022;-69
2022/03/05 06:42:56;;;;;;;20.63;11.07;;;2.70;98.00;;;;;;5006532;28;20034;-69
2022/03/05 06:45:23;;;;;;;23.17;11.70;;;2.70;98.00;;;;;;4986529;28;20037;-69
2022/03/05 06:47:48;;;;;;;;;;;2.80;97.70;;;;;;4983773;28;20021;-70
2022/03/05 06:50:14;;;;;;;23.60;12.05;;;2.80;97.60;;;;;;4998734;28;20378;-69
2022/03/05 06:52:40;;;;;;;20.00;10.63;;;2.90;97.50;;;;;;5007156;28;20028;-69
2022/03/05 06:55:07;;;;;;;20.85;11.55;;;2.90;97.50;;;;;;5006654;28;20083;-70
2022/03/05 06:57:34;;;;;;;21.70;11.00;;;3.00;97.20;;;;;;5006898;28;20051;-77
2022/03/05 06:59:59;;;;;;;;;;;3.00;97.40;;;;;;5012519;28;21560;-69
2022/03/05 07:02:25;;;;;;;21.08;9.98;;;3.10;97.70;;;;;;5000521;28;19917;-69
2022/03/05 07:04:51;;;;;;;21.93;12.03;;;3.20;97.20;;;;;;5006136;28;20018;-69
2022/03/05 07:07:17;;;;;;;27.77;12.17;;;3.30;96.80;;;;;;5007884;28;20033;-71
2022/03/05 07:09:43;;;;;;;21.83;12.15;;;3.40;96.70;;;;;;5012177;28;20041;-69
2022/03/05 07:12:09;;;;;;;24.00;11.97;;;3.50;96.40;;;;;;4993091;28;20961;-70
2022/03/05 07:14:36;;;;;;;21.55;11.07;;;3.50;96.20;;;;;;4986196;28;20087;-70
2022/03/05 07:17:02;;;;;;;24.02;12.20;;;3.60;95.90;;;;;;5004297;28;20116;-69
2022/03/05 07:19:28;;;;;;;20.73;11.02;;;3.70;95.60;;;;;;5005375;28;20398;-69
2022/03/05 07:21:54;;;;;;;21.00;10.70;;;3.70;95.50;;;;;;5006779;28;20028;-69
2022/03/05 07:24:20;;;;;;;20.07;10.67;;;3.70;95.40;;;;;;5004239;28;20041;-70
2022/03/05 07:26:45;;;;;;;20.13;10.30;;;3.80;95.40;;;;;;5008310;28;20029;-73
2022/03/05 07:29:11;;;;;;;25.87;12.00;;;3.90;95.20;;;;;;5007159;28;20029;-74
2022/03/05 07:31:38;;;;;;;20.30;10.27;;;4.10;94.80;;;;;;5001869;28;20026;-69
2022/03/05 07:34:05;;;;;;;;;;;4.30;94.30;;;;;;5002516;28;20018;-71
2022/03/05 07:36:30;;;;;;;18.83;10.23;;;4.40;94.00;;;;;;5004430;28;19912;-72
2022/03/05 07:38:56;;;;;;;20.37;10.33;;;4.60;93.50;;;;;;5005864;28;20045;-72
2022/03/05 07:41:22;;;;;;;19.90;10.70;;;4.70;93.20;;;;;;5006376;28;20387;-70
2022/03/05 07:43:48;;;;;;;20.10;10.43;;;4.80;92.80;;;;;;5013233;28;20387;-69
2022/03/05 07:46:14;;;;;;;18.23;10.10;;;4.90;92.50;;;;;;5007461;28;20026;-70
2022/03/05 07:48:39;;;;;;;20.80;9.97;;;5.00;92.40;;;;;;4995255;28;20049;-69
2022/03/05 07:51:06;;;;;;;21.87;11.17;;;5.10;92.20;;;;;;5005683;28;20025;-71
2022/03/05 07:53:32;;;;;;;19.55;10.55;;;5.20;91.90;;;;;;4988614;28;20029;-69
2022/03/05 07:55:59;;;;;;;22.52;10.38;;;5.40;91.40;;;;;;4988595;28;20124;-69
2022/03/05 07:58:24;;;;;;;20.00;11.20;;;5.60;91.20;;;;;;4988970;28;20034;-69
2022/03/05 08:00:50;;;;;;;19.60;11.30;;;5.80;90.70;;;;;;4996268;28;20042;-69
2022/03/05 08:03:16;;;;;;;17.90;10.13;;;5.90;90.50;;;;;;5005120;28;20041;-69
2022/03/05 08:05:43;;;;;;;19.70;10.77;;;6.00;89.60;;;;;;4997155;28;20079;-69
2022/03/05 08:08:09;;;;;;;18.80;10.70;;;6.00;89.50;;;;;;5002595;28;20603;-69
2022/03/05 08:10:36;;;;;;;20.90;11.60;;;6.10;88.80;;;;;;5007441;28;20434;-69
2022/03/05 08:13:02;;;;;;;20.80;10.27;;;6.10;89.00;;;;;;5000365;28;20033;-69
2022/03/05 08:15:28;;;;;;;19.23;10.13;;;6.30;87.80;;;;;;5011226;28;20103;-68
2022/03/05 08:18:00;;;;;;;19.87;10.70;;;6.40;87.40;;;;;;5004486;28;20108;-70
2022/03/05 08:20:31;;;;;;;21.10;11.25;;;6.70;86.20;;;;;;5009289;28;20542;-69
2022/03/05 08:22:57;;;;;;;18.42;10.27;;;6.70;85.00;;;;;;5007107;28;20026;-69
2022/03/05 08:25:24;;;;;;;18.70;10.23;;;7.00;84.70;;;;;;5007381;28;20348;-69
2022/03/05 08:27:50;;;;;;;17.40;10.07;;;7.40;83.40;;;;;;5010416;28;20117;-69
2022/03/05 08:30:16;;;;;;;18.23;10.50;;;7.60;81.60;;;;;;5008138;28;20156;-69
2022/03/05 08:32:43;;;;;;;18.13;9.73;;;7.70;80.90;;;;;;5004102;28;20030;-69
2022/03/05 08:35:10;;;;;;;21.25;10.55;;;7.90;80.30;;;;;;5010565;28;20030;-69
2022/03/05 08:37:37;;;;;;;22.58;9.88;;;8.00;78.70;;;;;;5007274;28;20029;-69
2022/03/05 08:40:06;;;;;;;17.15;9.57;;;8.10;78.30;;;;;;5002780;28;20029;-69
2022/03/05 08:42:32;;;;;;;17.33;10.05;;;8.30;77.70;;;;;;5011397;28;20753;-69
2022/03/05 08:44:58;;;;;;;17.75;10.20;;;8.50;77.00;;;;;;5006762;28;20054;-69
2022/03/05 08:47:24;;;;;;;20.23;10.73;;;8.50;76.20;;;;;;5008299;28;20059;-69
2022/03/05 08:49:50;;;;;;;19.23;11.00;;;8.60;75.80;;;;;;5008372;28;20414;-69
2022/03/05 08:52:16;;;;;;;16.40;10.02;;;8.70;75.00;;;;;;4981511;28;20293;-69
2022/03/05 08:54:42;;;;;;;19.80;10.53;;;8.80;74.70;;;;;;5000902;28;20034;-68
2022/03/05 08:57:11;;;;;;;19.10;10.73;;;9.00;73.70;;;;;;5004674;28;20036;-69
2022/03/05 08:59:37;;;;;;;19.33;10.18;;;9.20;73.70;;;;;;5007347;28;20076;-69
2022/03/05 09:02:03;;;;;;;17.25;10.38;;;9.50;72.30;;;;;;5005123;28;20057;-69
2022/03/05 09:04:29;;;;;;;17.02;10.38;;;9.50;71.50;;;;;;5003228;28;20131;-69
2022/03/05 09:06:54;;;;;;;18.43;10.70;;;9.60;71.20;;;;;;5007925;28;20406;-69
2022/03/05 09:09:20;;;;;;;19.60;11.13;;;9.70;70.10;;;;;;4983810;28;20431;-69
2022/03/05 09:11:46;;;;;;;26.52;12.35;;;9.70;70.50;;;;;;5009579;28;20089;-69
2022/03/05 09:14:12;;;;;;;20.70;10.90;;;10.10;69.90;;;;;;5004913;28;20079;-70
2022/03/05 09:16:39;;;;;;;17.17;9.90;;;10.90;67.90;;;;;;5012328;28;20017;-70
2022/03/05 09:19:05;;;;;;;19.85;11.48;;;11.80;64.30;;;;;;5006409;28;20013;-70
2022/03/05 09:21:32;;;;;;;19.83;10.73;;;12.70;61.70;;;;;;4986540;28;20036;-71
2022/03/05 09:23:57;;;;;;;20.60;12.40;;;13.90;59.40;;;;;;5002461;28;20021;-71
2022/03/05 09:26:23;;;;;;;18.50;12.55;;;15.10;54.30;;;;;;5011732;28;20094;-70
2022/03/05 09:28:50;;;;;;;19.05;12.43;;;14.80;51.80;;;;;;5008885;28;20081;-70
2022/03/05 09:31:16;;;;;;;18.63;12.35;;;14.50;52.00;;;;;;5000418;28;20902;-70
2022/03/05 09:33:42;;;;;;;18.58;12.73;;;14.30;52.10;;;;;;4990601;28;20060;-70
2022/03/05 09:36:09;;;;;;;16.60;12.52;;;14.70;51.80;;;;;;4991885;28;20136;-70
2022/03/05 09:38:34;;;;;;;17.60;12.15;;;15.00;50.70;;;;;;5011818;28;20150;-70
2022/03/05 09:41:05;;;;;;;15.80;11.18;;;14.40;51.10;;;;;;4991011;28;20108;-70
2022/03/05 09:43:31;;;;;;;15.90;11.57;;;13.80;51.30;;;;;;5007231;28;20037;-70
2022/03/05 09:45:58;;;;;;;17.88;12.18;;;13.30;51.70;;;;;;5005971;28;20047;-70
2022/03/05 09:48:26;;;;;;;16.55;11.38;;;13.30;52.60;;;;;;5009406;28;20029;-70
2022/03/05 09:50:52;;;;;;;17.52;11.32;;;13.30;52.50;;;;;;5000853;28;20026;-70
2022/03/05 09:53:20;;;;;;;17.92;12.32;;;13.00;52.50;;;;;;5005278;28;20030;-69
2022/03/05 09:55:48;;;;;;;18.67;12.02;;;12.50;53.30;;;;;;5006629;28;20075;-70
2022/03/05 09:58:14;;;;;;;17.52;11.23;;;12.30;53.60;;;;;;4987411;28;20387;-70
2022/03/05 10:00:40;;;;;;;18.83;11.57;;;12.10;53.90;;;;;;4998610;28;20030;-70
2022/03/05 10:03:06;;;;;;;20.73;12.23;;;11.50;54.60;;;;;;5006243;28;20022;-70
2022/03/05 10:05:32;;;;;;;;;;;10.80;56.30;;;;;;5004078;28;20025;-70
2022/03/05 10:08:00;;;;;;;16.63;10.68;;;10.50;57.90;;;;;;4998333;28;20615;-70
2022/03/05 10:10:26;;;;;;;16.65;10.40;;;10.50;58.60;;;;;;5006282;28;20037;-70
2022/03/05 10:12:52;;;;;;;19.73;11.27;;;10.50;58.10;;;;;;5006252;28;20055;-69
2022/03/05 10:15:20;;;;;;;17.77;11.10;;;10.40;58.50;;;;;;4984446;28;20417;-70
2022/03/05 10:17:48;;;;;;;19.00;11.30;;;10.10;59.10;;;;;;5010636;28;20017;-70
2022/03/05 10:20:14;;;;;;;20.05;11.32;;;9.80;59.50;;;;;;5005492;28;20025;-69
2022/03/05 10:22:56;;;;;;;15.67;9.33;;;9.50;60.50;;;;;;5012503;28;20009;-69
2022/03/05 10:25:39;;;;;;;15.02;9.15;;;9.70;58.00;;;;;;5007222;28;20026;-69
2022/03/05 10:28:08;;;;;;;15.80;9.02;;;10.10;56.40;;;;;;5004543;28;20056;-69
2022/03/05 10:30:37;;;;;;;15.18;8.80;;;10.40;55.00;;;;;;5011378;28;20529;-69
2022/03/05 10:33:03;;;;;;;15.48;8.50;;;10.40;54.50;;;;;;5009767;28;20024;-69
2022/03/05 10:35:28;;;;;;;15.57;8.75;;;10.40;54.50;;;;;;5003606;28;20026;-69
2022/03/05 10:37:54;;;;;;;17.43;8.33;;;11.20;52.60;;;;;;5013224;28;20053;-69
2022/03/05 10:40:32;;;;;;;12.68;7.78;;;11.50;50.90;;;;;;4987096;28;20513;-69
2022/03/05 10:43:03;;;;;;;14.18;8.63;;;12.30;49.60;;;;;;5008936;28;20037;-70
2022/03/05 10:45:29;;;;;;;11.88;7.65;;;12.40;48.40;;;;;;5012575;28;20038;-69
2022/03/05 10:47:57;;;;;;;13.82;8.50;;;11.90;49.10;;;;;;5006715;28;20874;-69
2022/03/05 10:50:30;;;;;;;15.95;9.60;;;11.30;50.20;;;;;;5004078;28;20609;-69
2022/03/05 10:53:01;;;;;;;16.10;9.35;;;10.60;52.00;;;;;;5008864;28;20105;-69
2022/03/05 10:55:34;;;;;;;13.55;8.48;;;10.00;53.70;;;;;;5010738;28;20029;-70
2022/03/05 10:58:03;;;;;;;15.95;9.15;;;9.50;54.80;;;;;;5006029;28;20103;-70
2022/03/05 11:00:30;;;;;;;16.20;9.38;;;9.10;55.80;;;;;;5010071;28;20013;-70
2022/03/05 11:02:58;;;;;;;18.20;9.20;;;8.70;57.50;;;;;;5011921;28;20851;-69
2022/03/05 11:05:24;;;;;;;14.52;8.50;;;8.40;58.30;;;;;;5000667;28;20045;-71
2022/03/05 11:07:52;;;;;;;17.70;9.07;;;8.20;59.40;;;;;;5012827;28;20037;-69
2022/03/05 11:10:21;;;;;;;14.65;8.18;;;8.00;60.50;;;;;;4983917;28;20033;-69
2022/03/05 11:12:51;;;;;;;15.25;8.35;;;7.90;61.00;;;;;;4989474;28;20049;-71
2022/03/05 11:15:18;;;;;;;17.02;9.50;;;7.50;61.90;;;;;;4988220;28;20026;-69
2022/03/05 11:17:46;;;;;;;15.93;8.80;;;7.30;63.30;;;;;;5013312;28;20071;-69
2022/03/05 11:20:13;;;;;;;17.08;9.20;;;7.20;62.90;;;;;;5004349;28;20113;-69
2022/03/05 11:22:39;;;;;;;;;;;7.00;63.50;;;;;;5006754;28;20029;-70
2022/03/05 11:25:06;;;;;;;16.80;9.35;;;6.90;64.40;;;;;;5001015;28;19916;-69
2022/03/05 11:27:31;;;;;;;19.30;9.15;;;6.70;65.00;;;;;;5004142;28;20614;-69
2022/03/05 11:30:04;;;;;;;18.20;9.40;;;6.70;65.50;;;;;;5003711;28;20064;-69
2022/03/05 11:32:37;;;;;;;16.77;8.35;;;6.60;65.90;;;;;;5011881;28;20075;-70
2022/03/05 11:35:18;;;;;;;17.92;8.52;;;6.50;65.50;;;;;;5011981;28;20048;-69
2022/03/05 11:37:44;;;;;;;14.32;8.30;;;6.40;65.80;;;;;;5006021;28;20034;-70
2022/03/05 11:40:40;;;;;;;14.93;8.40;;;6.40;66.40;;;;;;5013312;28;20045;-70
2022/03/05 11:43:24;;;;;;;16.50;8.75;;;6.40;66.50;;;;;;5008548;28;20028;-69
2022/03/05 11:46:00;;;;;;;15.25;8.55;;;6.40;66.40;;;;;;5002006;28;20053;-68
2022/03/05 11:48:27;;;;;;;14.45;8.52;;;6.40;66.00;;;;;;5005614;28;20247;-69
2022/03/05 11:50:56;;;;;;;15.15;8.20;;;6.40;65.60;;;;;;5005949;28;20841;-70
2022/03/05 11:53:22;;;;;;;18.13;8.90;;;6.50;65.70;;;;;;5013331;28;20060;-70
2022/03/05 11:55:49;;;;;;;16.50;8.37;;;6.60;65.90;;;;;;4999832;28;20036;-69
2022/03/05 11:58:16;;;;;;;16.38;9.02;;;6.60;65.70;;;;;;5006494;28;20446;-69
2022/03/05 12:00:44;;;;;;;14.82;8.63;;;6.70;65.20;;;;;;5010466;28;20581;-69
2022/03/05 12:03:09;;;;;;;16.75;8.65;;;6.60;65.20;;;;;;5007919;28;20041;-69
2022/03/05 12:05:38;;;;;;;17.13;8.77;;;6.50;65.80;;;;;;5004413;28;20059;-69
2022/03/05 12:08:22;;;;;;;17.05;9.55;;;6.40;66.60;;;;;;5002101;28;20025;-69
2022/03/05 12:11:10;;;;;;;16.83;8.68;;;6.40;66.80;;;;;;4987445;28;20746;-69
2022/03/05 12:13:49;;;;;;;25.00;9.02;;;6.30;67.30;;;;;;4998448;28;20084;-69
2022/03/05 12:16:23;;;;;;;17.77;8.10;;;6.40;67.70;;;;;;4991531;28;20068;-69
2022/03/05 12:18:49;;;;;;;15.52;8.10;;;6.40;68.10;;;;;;5004858;28;20028;-67
2022/03/05 12:21:24;;;;;;;21.27;9.02;;;6.40;68.30;;;;;;5003229;28;20044;-70
2022/03/05 12:23:50;;;;;;;20.20;8.38;;;6.50;68.30;;;;;;5005656;28;20033;-69
2022/03/05 12:26:17;;;;;;;33.20;10.37;;;6.60;67.50;;;;;;5004980;28;20029;-69
2022/03/05 12:28:44;;;;;;;14.73;8.25;;;6.70;67.30;;;;;;4999739;28;20025;-69
2022/03/05 12:31:19;;;;;;;22.58;8.70;;;6.80;67.10;;;;;;5007854;28;20030;-69
2022/03/05 12:33:46;;;;;;;25.42;9.05;;;6.90;66.50;;;;;;4998509;28;20530;-69
2022/03/05 12:36:18;;;;;;;20.05;9.40;;;7.00;66.30;;;;;;4986822;28;20507;-69
2022/03/05 12:38:54;;;;;;;12.77;7.57;;;7.00;65.80;;;;;;4998798;28;20045;-69
2022/03/05 12:41:19;;;;;;;14.95;7.75;;;7.00;65.00;;;;;;5004358;28;20446;-70
2022/03/05 12:43:45;;;;;;;10.73;6.70;;;7.10;64.00;;;;;;5002390;28;20013;-69
2022/03/05 12:46:11;;;;;;;12.87;6.77;;;7.20;63.70;;;;;;5006088;28;20032;-68